Time;durP1;ratioP1;P1;durP2;ratioP2;P2;SDS_P1;SDS_P2;PMS_P1;PMS_P2;Temp;Humidity;BMP_temperature;BMP_pressure;BME280_temperature;BME280_humidity;BME280_pressure;Samples;Min_cycle;Max_cycle;Signal;HPM_P1;HPM_P2
2023/08/25 00:00:19;;;;;;;11.70;7.60;;;;;;;17.86;81.76;100506.55;106242;1258;98410;-80
2023/08/25 00:03:25;;;;;;;9.30;6.90;;;;;;;17.85;81.89;100507.21;106312;1259;97974;-81
2023/08/25 00:06:10;;;;;;;10.70;7.50;;;;;;;17.85;82.25;100496.76;106342;1263;98491;-81
2023/08/25 00:08:56;;;;;;;11.20;7.30;;;;;;;17.86;81.98;100491.73;106401;1259;110539;-81
2023/08/25 00:11:42;;;;;;;12.80;7.80;;;;;;;17.85;82.30;100486.71;106277;1258;100831;-82
2023/08/25 00:14:27;;;;;;;11.50;7.50;;;;;;;17.83;82.24;100483.25;106043;1263;97971;-82
2023/08/25 00:17:13;;;;;;;13.40;7.70;;;;;;;17.78;82.04;100483.73;106145;1258;98064;-82
2023/08/25 00:19:58;;;;;;;15.10;7.10;;;;;;;17.73;81.96;100476.80;106021;1260;97951;-82
2023/08/25 00:22:43;;;;;;;10.50;6.60;;;;;;;17.68;81.61;100475.22;106015;1258;101447;-82
2023/08/25 00:25:31;;;;;;;10.70;7.10;;;;;;;17.64;81.83;100479.58;105994;1258;100339;-81
2023/08/25 00:28:17;;;;;;;12.90;7.50;;;;;;;17.59;81.70;100485.41;106119;1264;98242;-80
2023/08/25 00:31:03;;;;;;;9.90;7.20;;;;;;;17.54;81.80;100490.50;106131;1257;98023;-82
2023/08/25 00:33:50;;;;;;;13.80;7.00;;;;;;;17.49;81.91;100487.11;106114;1258;97951;-80
2023/08/25 00:36:36;;;;;;;11.80;6.70;;;;;;;17.46;82.02;100487.88;106349;1263;101483;-82
2023/08/25 00:39:21;;;;;;;10.40;6.40;;;;;;;17.42;81.95;100495.05;106373;1262;99141;-82
2023/08/25 00:42:06;;;;;;;14.00;6.40;;;;;;;17.37;82.00;100507.48;106297;1263;98370;-81
2023/08/25 00:44:52;;;;;;;8.60;6.30;;;;;;;17.32;81.95;100511.05;106253;1257;142950;-81
2023/08/25 00:47:38;;;;;;;10.50;7.60;;;;;;;17.33;82.17;100513.33;106199;1263;99728;-81
2023/08/25 00:50:28;;;;;;;9.80;7.10;;;;;;;17.36;82.50;100517.95;106240;1258;101377;-82
2023/08/25 00:53:14;;;;;;;12.00;7.20;;;;;;;17.38;82.79;100519.42;106309;1260;99566;-82
2023/08/25 00:56:02;;;;;;;8.90;6.30;;;;;;;17.38;82.45;100518.50;106385;1263;99031;-83
2023/08/25 00:58:49;;;;;;;10.50;7.00;;;;;;;17.38;82.54;100517.70;106243;1263;98047;-83
2023/08/25 01:01:35;;;;;;;12.70;7.40;;;;;;;17.38;82.38;100511.02;106299;1258;97879;-81
2023/08/25 01:04:20;;;;;;;10.30;7.50;;;;;;;17.36;82.17;100509.83;106336;1261;101358;-80
2023/08/25 01:07:06;;;;;;;16.10;8.30;;;;;;;17.29;82.07;100516.31;106469;1258;99757;-80
2023/08/25 01:09:53;;;;;;;11.60;7.60;;;;;;;17.21;81.99;100521.22;106248;1263;97908;-81
2023/08/25 01:13:07;;;;;;;10.60;7.30;;;;;;;17.16;82.43;100527.67;106532;1257;98134;-82
2023/08/25 01:15:54;;;;;;;14.80;8.10;;;;;;;17.11;82.47;100529.38;106406;1258;99144;-82
2023/08/25 01:18:42;;;;;;;8.40;6.70;;;;;;;17.08;82.62;100528.96;106382;1258;101375;-81
2023/08/25 01:21:28;;;;;;;9.20;7.00;;;;;;;17.05;82.85;100530.64;106354;1263;99255;-81
2023/08/25 01:24:22;;;;;;;16.30;6.30;;;;;;;17.02;82.88;100520.77;106303;1258;97997;-81
2023/08/25 01:27:10;;;;;;;8.90;6.60;;;;;;;17.03;83.40;100510.88;106211;1258;98861;-82
2023/08/25 01:29:55;;;;;;;11.80;6.80;;;;;;;17.03;83.32;100503.72;106261;1259;98055;-79
2023/08/25 01:32:41;;;;;;;11.40;7.20;;;;;;;16.99;83.64;100497.36;106419;1258;111752;-82
2023/08/25 01:35:30;;;;;;;9.50;6.70;;;;;;;16.91;83.75;100492.33;106268;1263;99061;-81
2023/08/25 01:38:33;;;;;;;14.10;6.40;;;;;;;16.86;83.71;100492.05;106379;1261;97892;-82
2023/08/25 01:41:23;;;;;;;6.80;6.10;;;;;;;16.86;84.21;100495.67;106296;1258;97880;-82
2023/08/25 01:44:12;;;;;;;9.70;6.90;;;;;;;16.85;84.24;100490.48;106390;1258;98046;-82
2023/08/25 01:47:03;;;;;;;10.90;6.40;;;;;;;16.83;84.29;100486.86;106428;1257;102176;-82
2023/08/25 01:49:49;;;;;;;13.30;6.50;;;;;;;16.82;84.62;100484.50;106118;1260;99180;-81
2023/08/25 01:52:38;;;;;;;11.00;6.50;;;;;;;16.82;84.99;100483.59;106434;1257;99040;-82
2023/08/25 01:55:24;;;;;;;10.60;6.60;;;;;;;16.82;85.04;100474.08;106163;1258;98036;-81
2023/08/25 01:58:09;;;;;;;9.70;5.90;;;;;;;16.83;85.08;100472.04;106187;1257;98045;-81
2023/08/25 02:00:55;;;;;;;11.50;6.10;;;;;;;16.83;85.18;100465.13;106249;1258;102504;-81
2023/08/25 02:03:42;;;;;;;10.00;6.30;;;;;;;16.84;85.37;100457.80;106270;1257;100660;-80
2023/08/25 02:06:27;;;;;;;11.40;6.30;;;;;;;16.84;85.47;100452.92;106310;1263;97984;-81
2023/08/25 02:09:14;;;;;;;10.60;6.90;;;;;;;16.84;85.67;100447.59;106307;1257;98941;-82
2023/08/25 02:12:00;;;;;;;10.60;5.80;;;;;;;16.82;85.76;100446.99;106203;1260;98490;-81
2023/08/25 02:14:45;;;;;;;10.40;6.90;;;;;;;16.78;85.93;100442.73;106110;1258;101435;-80
2023/08/25 02:17:30;;;;;;;10.80;6.60;;;;;;;16.76;85.87;100439.35;106322;1259;100446;-81
2023/08/25 02:20:15;;;;;;;10.40;6.30;;;;;;;16.75;86.04;100435.37;106167;1257;98873;-81
2023/08/25 02:23:01;;;;;;;8.70;6.00;;;;;;;16.73;85.97;100428.77;106159;1258;97962;-81
2023/08/25 02:25:46;;;;;;;9.70;5.80;;;;;;;16.72;86.02;100423.16;106248;1258;98503;-81
2023/08/25 02:28:31;;;;;;;12.00;6.10;;;;;;;16.73;86.35;100422.17;106241;1258;101367;-81
2023/08/25 02:31:18;;;;;;;8.40;6.20;;;;;;;16.73;86.42;100420.88;106123;1258;99763;-81
2023/08/25 02:34:05;;;;;;;10.50;6.10;;;;;;;16.72;86.35;100416.55;106372;1261;99033;-81
2023/08/25 02:36:51;;;;;;;10.70;6.20;;;;;;;16.70;86.42;100417.96;106282;1263;97946;-81
2023/08/25 02:39:37;;;;;;;9.80;6.60;;;;;;;16.69;86.45;100420.16;106234;1261;97971;-82
2023/08/25 02:42:22;;;;;;;10.20;6.20;;;;;;;16.67;86.63;100417.42;106306;1258;102422;-82
2023/08/25 02:45:08;;;;;;;10.40;6.00;;;;;;;16.67;86.60;100416.93;106353;1258;100324;-81
2023/08/25 02:47:54;;;;;;;10.00;8.20;;;;;;;16.68;86.52;100418.80;106210;1258;97985;-81
2023/08/25 02:50:40;;;;;;;10.20;6.00;;;;;;;16.68;86.55;100422.04;106146;1258;97884;-82
2023/08/25 02:53:26;;;;;;;10.10;6.10;;;;;;;16.66;86.75;100418.89;106237;1258;95891;-81
2023/08/25 02:56:11;;;;;;;10.30;5.70;;;;;;;16.63;86.46;100422.48;106191;1258;111755;-81
2023/08/25 02:58:57;;;;;;;8.60;5.90;;;;;;;16.61;86.53;100421.68;106293;1258;99143;-81
2023/08/25 03:01:43;;;;;;;8.50;5.60;;;;;;;16.58;86.59;100417.17;106219;1263;99058;-81
2023/08/25 03:04:30;;;;;;;9.80;5.90;;;;;;;16.58;86.73;100415.36;106253;1258;99108;-82
2023/08/25 03:07:16;;;;;;;8.50;5.50;;;;;;;16.56;86.70;100419.17;106146;1258;97963;-82
2023/08/25 03:10:02;;;;;;;6.40;5.60;;;;;;;16.54;86.57;100421.98;106202;1258;101468;-81
2023/08/25 03:12:48;;;;;;;9.70;6.10;;;;;;;16.54;86.76;100424.73;106304;1258;99097;-82
2023/08/25 03:15:35;;;;;;;9.40;6.30;;;;;;;16.56;86.74;100422.89;106100;1264;98993;-82
2023/08/25 03:18:20;;;;;;;8.60;6.60;;;;;;;16.54;86.87;100421.44;106105;1263;98058;-82
2023/08/25 03:21:06;;;;;;;8.70;5.90;;;;;;;16.52;87.00;100423.86;106087;1260;98455;-83
2023/08/25 03:23:53;;;;;;;6.40;5.40;;;;;;;16.49;87.14;100422.38;106287;1258;102710;-82
2023/08/25 03:26:38;;;;;;;8.80;5.60;;;;;;;16.49;87.10;100421.29;106063;1258;99190;-81
2023/08/25 03:29:25;;;;;;;13.40;6.40;;;;;;;16.48;87.26;100417.80;106167;1257;97853;-81
2023/08/25 03:32:11;;;;;;;8.00;5.80;;;;;;;16.49;87.06;100415.95;106251;1258;97998;-81
2023/08/25 03:34:56;;;;;;;7.40;5.90;;;;;;;16.48;87.26;100414.59;106290;1258;98459;-81
2023/08/25 03:37:43;;;;;;;9.30;6.40;;;;;;;16.46;87.28;100417.91;106220;1258;101458;-81
2023/08/25 03:40:29;;;;;;;8.00;6.50;;;;;;;16.47;87.40;100418.45;106152;1258;100437;-82
2023/08/25 03:43:14;;;;;;;11.20;6.40;;;;;;;16.47;87.45;100416.98;106358;1258;97894;-83
2023/08/25 03:46:00;;;;;;;7.50;5.70;;;;;;;16.47;87.56;100414.27;106216;1258;97743;-80
2023/08/25 03:48:46;;;;;;;11.90;6.20;;;;;;;16.49;87.64;100409.43;106302;1261;97937;-82
2023/08/25 03:51:32;;;;;;;7.20;5.40;;;;;;;16.50;87.93;100401.95;106236;1257;102587;-82
2023/08/25 03:54:18;;;;;;;8.90;6.10;;;;;;;16.50;87.73;100402.61;106145;1263;100511;-82
2023/08/25 03:57:07;;;;;;;8.30;5.80;;;;;;;16.49;87.70;100404.15;106286;1258;98009;-82
2023/08/25 03:59:52;;;;;;;7.60;5.70;;;;;;;16.48;87.99;100406.50;106588;1258;98128;-82
2023/08/25 04:02:39;;;;;;;8.90;5.70;;;;;;;16.46;87.98;100403.39;106135;1261;98509;-80
2023/08/25 04:05:25;;;;;;;10.90;6.20;;;;;;;16.42;88.14;100399.88;106303;1258;102035;-81
2023/08/25 04:08:10;;;;;;;8.30;5.50;;;;;;;16.37;88.26;100398.23;106195;1258;100039;-81
2023/08/25 04:10:55;;;;;;;8.20;5.60;;;;;;;16.37;88.67;100396.66;106190;1258;97975;-82
2023/08/25 04:13:41;;;;;;;7.00;6.20;;;;;;;16.37;88.90;100395.16;106305;1258;96028;-81
2023/08/25 04:16:27;;;;;;;8.80;5.90;;;;;;;16.39;88.89;100397.42;106287;1262;98579;-82
2023/08/25 04:19:16;;;;;;;8.80;6.30;;;;;;;16.42;88.99;100392.20;106184;1258;101429;-82
2023/08/25 04:22:03;;;;;;;9.30;7.10;;;;;;;16.44;89.24;100389.13;106236;1263;100445;-81
2023/08/25 04:24:49;;;;;;;9.00;6.70;;;;;;;16.45;89.45;100387.81;106120;1257;98041;-82
2023/08/25 04:27:34;;;;;;;10.20;6.90;;;;;;;16.45;89.76;100387.69;106207;1258;97777;-82
2023/08/25 04:30:22;;;;;;;8.30;6.60;;;;;;;16.46;90.05;100384.55;106140;1263;96405;-81
2023/08/25 04:33:08;;;;;;;9.90;6.50;;;;;;;16.48;89.99;100378.41;106155;1257;101477;-82
2023/08/25 04:35:55;;;;;;;7.20;5.90;;;;;;;16.48;90.13;100373.29;106146;1258;100444;-82
2023/08/25 04:38:41;;;;;;;6.60;5.50;;;;;;;16.51;90.37;100370.14;106065;1263;97895;-81
2023/08/25 04:41:27;;;;;;;9.50;5.90;;;;;;;16.54;90.57;100370.29;106080;1258;98030;-82
2023/08/25 04:44:12;;;;;;;11.10;5.80;;;;;;;16.57;90.72;100367.31;106218;1257;98513;-81
2023/08/25 04:46:58;;;;;;;9.00;6.20;;;;;;;16.61;90.89;100368.58;106169;1258;101381;-81
2023/08/25 04:49:44;;;;;;;9.70;6.80;;;;;;;16.67;91.24;100361.64;106118;1258;99140;-82
2023/08/25 04:52:30;;;;;;;8.90;6.90;;;;;;;16.73;91.32;100355.50;106173;1261;99004;-82
2023/08/25 04:55:18;;;;;;;8.70;7.10;;;;;;;16.79;91.77;100348.41;106161;1258;98061;-81
2023/08/25 04:58:03;;;;;;;10.60;6.70;;;;;;;16.85;92.19;100343.70;106162;1258;98047;-81
2023/08/25 05:00:50;;;;;;;11.00;6.50;;;;;;;16.90;92.53;100349.55;106250;1258;101462;-81
2023/08/25 05:03:36;;;;;;;10.20;6.60;;;;;;;16.94;92.80;100351.45;106247;1258;99111;-80
2023/08/25 05:06:22;;;;;;;7.30;6.50;;;;;;;16.99;92.84;100346.95;106341;1258;97991;-81
2023/08/25 05:09:08;;;;;;;10.70;6.50;;;;;;;17.04;93.10;100344.48;106233;1258;97914;-81
2023/08/25 05:11:54;;;;;;;11.00;7.90;;;;;;;17.11;93.43;100341.71;106223;1258;97971;-82
2023/08/25 05:14:40;;;;;;;9.40;7.00;;;;;;;17.19;93.55;100338.33;106238;1259;102689;-81
2023/08/25 05:17:26;;;;;;;9.90;7.10;;;;;;;17.26;94.14;100336.34;106264;1261;100142;-81
2023/08/25 05:20:18;;;;;;;10.40;7.40;;;;;;;17.33;94.27;100335.13;106176;1257;98797;-81
2023/08/25 05:23:03;;;;;;;8.40;7.00;;;;;;;17.42;95.06;100338.46;106156;1258;98186;-81
2023/08/25 05:25:49;;;;;;;12.60;9.20;;;;;;;17.49;95.09;100336.17;106345;1262;98459;-81
2023/08/25 05:28:35;;;;;;;13.20;10.40;;;;;;;17.59;95.09;100333.90;106189;1264;102643;-81
2023/08/25 05:31:22;;;;;;;10.80;9.60;;;;;;;17.70;95.05;100331.52;106205;1260;99139;-81
2023/08/25 05:34:27;;;;;;;15.10;11.40;;;;;;;17.80;95.16;100327.02;106508;1258;99078;-81
2023/08/25 05:37:15;;;;;;;14.20;9.80;;;;;;;17.89;95.13;100325.78;106763;1263;97895;-81
2023/08/25 05:40:05;;;;;;;11.80;9.30;;;;;;;17.99;94.86;100323.83;106385;1258;99248;-82
2023/08/25 05:42:52;;;;;;;12.20;9.90;;;;;;;18.10;94.67;100317.59;106486;1258;101435;-83
2023/08/25 05:45:41;;;;;;;14.20;9.30;;;;;;;18.20;94.30;100316.25;106452;1258;99838;-81
2023/08/25 05:48:27;;;;;;;13.50;9.40;;;;;;;18.29;94.28;100309.96;106157;1264;97955;-81
2023/08/25 05:51:12;;;;;;;19.20;9.80;;;;;;;18.39;94.15;100301.36;106324;1264;97913;-82
2023/08/25 05:53:58;;;;;;;14.70;10.00;;;;;;;18.47;94.14;100300.23;106232;1258;97841;-82
2023/08/25 05:56:43;;;;;;;12.10;8.20;;;;;;;18.55;93.66;100293.98;106332;1262;101409;-81
2023/08/25 05:59:32;;;;;;;13.40;9.90;;;;;;;18.66;93.69;100294.30;106232;1258;107788;-82
2023/08/25 06:02:17;;;;;;;13.40;9.30;;;;;;;18.72;93.73;100294.27;106309;1258;97921;-82
2023/08/25 06:05:04;;;;;;;10.10;9.10;;;;;;;18.81;93.95;100293.46;106384;1258;97975;-81
2023/08/25 06:07:49;;;;;;;10.70;8.50;;;;;;;18.90;93.60;100292.58;106240;1262;98417;-82
2023/08/25 06:10:35;;;;;;;11.50;9.20;;;;;;;19.01;93.55;100290.35;106206;1262;102611;-82
2023/08/25 06:13:21;;;;;;;13.90;9.20;;;;;;;19.09;93.89;100290.91;106271;1261;99413;-83
2023/08/25 06:16:06;;;;;;;12.90;9.00;;;;;;;19.17;93.92;100292.32;106259;1262;98027;-82
2023/08/25 06:18:52;;;;;;;11.20;7.60;;;;;;;19.25;93.57;100293.23;106258;1263;98029;-81
2023/08/25 06:21:37;;;;;;;13.40;9.10;;;;;;;19.32;93.25;100286.29;106306;1262;98410;-81
2023/08/25 06:24:24;;;;;;;10.30;8.20;;;;;;;19.39;93.31;100281.40;106310;1258;101480;-82
2023/08/25 06:27:10;;;;;;;14.50;9.00;;;;;;;19.45;93.13;100281.88;106338;1260;100359;-82
2023/08/25 06:29:56;;;;;;;10.40;8.40;;;;;;;19.50;92.99;100276.40;106186;1261;97982;-83
2023/08/25 06:32:42;;;;;;;10.50;8.40;;;;;;;19.55;92.69;100273.52;106268;1263;97915;-82
2023/08/25 06:35:29;;;;;;;12.30;7.90;;;;;;;19.61;92.74;100278.59;106305;1258;96775;-82
2023/08/25 06:38:15;;;;;;;10.70;8.90;;;;;;;19.65;92.70;100275.91;106336;1258;102136;-80
2023/08/25 06:41:01;;;;;;;15.70;9.50;;;;;;;19.68;92.59;100276.45;106372;1261;99120;-82
2023/08/25 06:43:46;;;;;;;8.70;7.80;;;;;;;19.73;92.65;100279.66;106397;1263;97854;-82
2023/08/25 06:46:33;;;;;;;12.20;8.30;;;;;;;19.77;92.34;100279.28;106421;1258;97880;-83
2023/08/25 06:49:18;;;;;;;17.00;9.70;;;;;;;19.82;92.31;100281.94;106369;1263;98503;-83
2023/08/25 06:52:06;;;;;;;10.70;8.10;;;;;;;19.86;92.25;100288.40;106340;1263;102812;-83
2023/08/25 06:54:51;;;;;;;11.80;8.80;;;;;;;19.91;92.22;100290.96;106490;1262;99096;-82
2023/08/25 06:57:37;;;;;;;18.00;12.70;;;;;;;19.98;91.91;100289.63;106351;1262;97886;-82
2023/08/25 07:00:22;;;;;;;14.70;9.00;;;;;;;20.05;92.04;100285.73;106462;1262;97925;-82
2023/08/25 07:03:08;;;;;;;15.50;8.70;;;;;;;20.12;92.32;100283.36;106601;1257;97713;-82
2023/08/25 07:05:58;;;;;;;14.20;8.40;;;;;;;20.18;92.68;100278.48;106198;1264;101706;-83
2023/08/25 07:08:43;;;;;;;14.10;9.70;;;;;;;20.23;92.48;100270.23;106326;1258;99146;-81
2023/08/25 07:11:29;;;;;;;16.10;9.70;;;;;;;20.29;92.73;100255.48;106219;1258;98061;-82
2023/08/25 07:14:16;;;;;;;11.00;9.20;;;;;;;20.35;92.78;100251.13;106176;1262;98087;-82
2023/08/25 07:17:02;;;;;;;13.20;8.60;;;;;;;20.40;92.88;100249.70;106098;1258;97889;-82
2023/08/25 07:19:48;;;;;;;10.20;8.30;;;;;;;20.45;93.15;100252.86;106110;1267;102704;-82
2023/08/25 07:22:33;;;;;;;15.70;9.10;;;;;;;20.50;92.89;100255.01;106185;1261;99088;-83
2023/08/25 07:25:21;;;;;;;12.80;10.30;;;;;;;20.53;92.84;100256.89;106035;1261;97997;-82
2023/08/25 07:28:06;;;;;;;12.20;7.80;;;;;;;20.55;92.40;100259.08;106074;1260;97674;-83
2023/08/25 07:30:51;;;;;;;11.20;9.70;;;;;;;20.57;92.29;100265.58;106159;1261;97987;-83
2023/08/25 07:33:37;;;;;;;10.50;8.90;;;;;;;20.60;92.51;100263.15;106203;1260;101434;-83
2023/08/25 07:36:22;;;;;;;15.30;9.30;;;;;;;20.61;91.89;100258.42;106214;1263;99164;-82
2023/08/25 07:39:08;;;;;;;10.60;7.90;;;;;;;20.63;91.89;100255.40;106183;1257;99003;-82
2023/08/25 07:41:54;;;;;;;10.30;8.70;;;;;;;20.65;91.97;100252.95;106247;1258;97963;-82
2023/08/25 07:44:39;;;;;;;12.20;8.30;;;;;;;20.69;91.58;100255.38;106566;1257;97965;-82
2023/08/25 07:47:24;;;;;;;8.80;7.80;;;;;;;20.73;91.52;100248.83;106447;1258;101358;-83
2023/08/25 07:50:10;;;;;;;13.60;9.40;;;;;;;20.78;91.59;100244.83;106329;1261;99161;-83
2023/08/25 07:52:56;;;;;;;14.30;8.90;;;;;;;20.84;91.64;100246.39;106165;1257;97974;-81
2023/08/25 07:55:42;;;;;;;13.40;8.50;;;;;;;20.91;91.83;100252.75;106117;1261;97995;-83
2023/08/25 07:58:28;;;;;;;16.70;9.10;;;;;;;20.99;91.63;100248.34;106038;1258;98503;-81
2023/08/25 08:01:13;;;;;;;11.60;8.40;;;;;;;21.06;91.75;100241.23;106170;1258;102126;-82
2023/08/25 08:03:59;;;;;;;11.20;8.70;;;;;;;21.14;91.33;100234.79;106359;1258;99754;-81
2023/08/25 08:06:44;;;;;;;15.10;8.80;;;;;;;21.24;91.25;100234.67;106332;1258;105985;-81
2023/08/25 08:09:31;;;;;;;11.60;9.00;;;;;;;21.32;90.98;100230.67;106413;1260;97979;-82
2023/08/25 08:12:17;;;;;;;15.40;8.80;;;;;;;21.40;90.63;100228.65;106424;1260;97971;-81
2023/08/25 08:15:04;;;;;;;11.20;8.50;;;;;;;21.51;90.62;100229.95;106298;1259;101359;-82
2023/08/25 08:17:50;;;;;;;11.10;8.20;;;;;;;21.59;90.69;100228.77;106907;1258;100496;-80
2023/08/25 08:20:35;;;;;;;11.20;8.10;;;;;;;21.65;91.02;100226.66;106229;1261;98981;-81
2023/08/25 08:23:21;;;;;;;11.10;7.70;;;;;;;21.73;90.87;100228.43;106349;1258;98003;-80
2023/08/25 08:26:06;;;;;;;13.50;7.10;;;;;;;21.79;90.29;100227.56;106306;1263;97966;-80
2023/08/25 08:28:52;;;;;;;10.40;7.80;;;;;;;21.85;90.16;100229.46;106307;1258;102683;-81
2023/08/25 08:31:38;;;;;;;13.50;6.90;;;;;;;21.91;89.47;100228.98;106247;1258;99494;-81
2023/08/25 08:34:23;;;;;;;8.80;7.30;;;;;;;21.96;89.01;100226.98;106167;1264;97962;-80
2023/08/25 08:37:09;;;;;;;12.80;7.20;;;;;;;21.99;88.33;100225.36;106149;1261;97958;-82
2023/08/25 08:39:54;;;;;;;10.10;7.70;;;;;;;22.00;88.02;100228.25;106260;1259;97997;-81
2023/08/25 08:42:39;;;;;;;10.80;7.20;;;;;;;22.02;87.36;100227.54;106278;1261;101412;-82
2023/08/25 08:45:27;;;;;;;13.00;7.50;;;;;;;22.05;86.81;100229.23;106146;1263;100153;-82
2023/08/25 08:48:13;;;;;;;12.30;6.50;;;;;;;22.07;86.67;100231.58;106203;1264;97962;-81
2023/08/25 08:51:00;;;;;;;11.20;7.50;;;;;;;22.09;86.54;100231.20;106152;1258;98093;-81
2023/08/25 08:53:48;;;;;;;10.20;7.00;;;;;;;22.11;86.11;100231.86;106225;1258;97842;-81
2023/08/25 08:56:35;;;;;;;11.00;7.10;;;;;;;22.15;85.87;100228.21;106189;1261;101416;-81
2023/08/25 08:59:21;;;;;;;11.10;6.90;;;;;;;22.17;85.49;100228.17;106210;1258;99301;-81
2023/08/25 09:02:07;;;;;;;11.30;6.90;;;;;;;22.18;84.95;100230.25;106402;1257;97963;-80
2023/08/25 09:04:57;;;;;;;10.50;6.90;;;;;;;22.20;84.92;100225.93;106103;1258;97885;-82
2023/08/25 09:07:43;;;;;;;12.40;6.60;;;;;;;22.22;84.83;100226.80;106204;1258;98068;-81
2023/08/25 09:10:29;;;;;;;8.20;6.60;;;;;;;22.24;85.02;100222.05;106145;1258;101416;-82
2023/08/25 09:13:15;;;;;;;8.10;7.30;;;;;;;22.27;85.03;100221.57;106268;1261;99166;-81
2023/08/25 09:16:10;;;;;;;10.00;7.50;;;;;;;22.29;84.47;100224.52;106143;1264;98101;-82
2023/08/25 09:19:00;;;;;;;13.30;7.20;;;;;;;22.32;84.06;100223.25;106201;1261;98007;-82
2023/08/25 09:21:46;;;;;;;10.90;7.20;;;;;;;22.35;84.38;100219.55;106729;1262;98510;-81
2023/08/25 09:24:33;;;;;;;11.50;7.80;;;;;;;22.38;84.64;100213.33;106177;1261;102729;-82
2023/08/25 09:27:26;;;;;;;11.20;8.00;;;;;;;22.40;84.51;100214.09;106197;1258;99238;-82
2023/08/25 09:30:12;;;;;;;10.60;7.60;;;;;;;22.40;84.19;100211.08;106216;1260;99012;-80
2023/08/25 09:33:05;;;;;;;10.50;7.30;;;;;;;22.41;84.16;100209.06;106052;1258;97953;-81
2023/08/25 09:35:51;;;;;;;9.90;7.80;;;;;;;22.43;84.47;100207.70;107200;1261;97879;-81
2023/08/25 09:38:44;;;;;;;14.60;7.90;;;;;;;22.46;84.93;100200.44;106381;1257;101433;-81
2023/08/25 09:41:29;;;;;;;15.10;8.10;;;;;;;22.48;84.45;100197.77;107788;1258;100616;-81
2023/08/25 09:44:16;;;;;;;9.00;8.00;;;;;;;22.51;84.43;100195.20;106383;1261;98519;-81
2023/08/25 09:47:04;;;;;;;12.50;7.40;;;;;;;22.54;84.88;100184.86;106282;1258;96540;-81
2023/08/25 09:49:52;;;;;;;13.50;8.70;;;;;;;22.59;85.04;100180.09;106072;1261;98395;-81
2023/08/25 09:52:40;;;;;;;14.40;9.00;;;;;;;22.63;84.39;100177.25;105779;1257;101427;-81
2023/08/25 09:55:25;;;;;;;15.50;8.30;;;;;;;22.68;84.40;100176.69;106039;1261;99202;-81
2023/08/25 09:58:12;;;;;;;17.60;9.00;;;;;;;22.73;84.38;100177.92;106165;1263;98370;-81
2023/08/25 10:00:58;;;;;;;11.50;7.80;;;;;;;22.79;84.37;100186.38;106080;1258;97910;-81
2023/08/25 10:03:44;;;;;;;7.90;6.90;;;;;;;22.82;83.73;100191.67;106351;1260;99000;-81
2023/08/25 10:06:32;;;;;;;10.10;7.70;;;;;;;22.83;83.34;100195.34;106303;1258;101416;-81
2023/08/25 10:09:19;;;;;;;11.00;6.90;;;;;;;22.83;82.82;100196.64;106151;1258;99105;-82
2023/08/25 10:12:07;;;;;;;11.30;7.50;;;;;;;22.84;82.61;100198.28;106465;1261;98409;-82
2023/08/25 10:14:56;;;;;;;8.10;6.40;;;;;;;22.85;82.33;100202.71;106179;1258;97998;-84
2023/08/25 10:17:46;;;;;;;9.30;6.90;;;;;;;22.86;81.79;100205.48;106158;1261;98331;-81
2023/08/25 10:20:33;;;;;;;9.30;6.90;;;;;;;22.85;82.14;100207.57;106106;1261;102121;-82
2023/08/25 10:23:21;;;;;;;12.90;8.20;;;;;;;22.84;82.17;100203.58;106098;1258;99182;-82
2023/08/25 10:26:08;;;;;;;13.00;7.60;;;;;;;22.82;82.97;100197.96;106409;1264;99076;-82
2023/08/25 10:28:54;;;;;;;11.90;7.30;;;;;;;22.80;83.13;100202.61;106065;1258;97991;-83
2023/08/25 10:31:51;;;;;;;9.30;7.50;;;;;;;22.77;83.41;100208.56;106028;1259;98520;-80
2023/08/25 10:34:42;;;;;;;13.00;7.80;;;;;;;22.74;84.49;100198.23;106180;1258;102414;-81
2023/08/25 10:37:30;;;;;;;9.10;7.60;;;;;;;22.70;85.56;100186.69;106060;1258;100637;-82
2023/08/25 10:40:15;;;;;;;12.20;7.60;;;;;;;22.67;85.56;100180.85;106335;1258;99279;-81
2023/08/25 10:43:04;;;;;;;9.60;7.70;;;;;;;22.66;85.63;100177.58;106163;1263;96774;-81
2023/08/25 10:45:51;;;;;;;10.80;8.10;;;;;;;22.65;85.98;100174.61;106167;1258;98025;-81
2023/08/25 10:48:38;;;;;;;13.80;7.90;;;;;;;22.64;85.95;100172.77;105930;1258;102114;-80
2023/08/25 10:51:26;;;;;;;10.10;7.60;;;;;;;22.64;85.78;100169.75;106185;1259;100381;-81
2023/08/25 10:54:17;;;;;;;13.50;8.10;;;;;;;22.67;85.90;100175.27;105979;1264;98900;-81
2023/08/25 10:57:18;;;;;;;11.50;7.40;;;;;;;22.69;85.19;100174.34;105904;1258;99168;-80
2023/08/25 11:00:23;;;;;;;9.50;7.60;;;;;;;22.72;84.84;100170.56;106031;1263;97972;-81
2023/08/25 11:03:09;;;;;;;10.70;7.20;;;;;;;22.77;84.77;100169.46;106012;1264;101407;-81
2023/08/25 11:05:55;;;;;;;10.30;8.50;;;;;;;22.84;84.71;100173.33;106159;1258;99153;-81
2023/08/25 11:08:42;;;;;;;8.60;7.10;;;;;;;22.91;84.75;100177.84;106064;1258;97925;-81
2023/08/25 11:11:29;;;;;;;8.70;7.70;;;;;;;22.97;84.64;100173.71;106083;1263;97910;-80
2023/08/25 11:14:15;;;;;;;10.60;7.20;;;;;;;23.05;84.56;100175.44;105860;1258;98042;-81
2023/08/25 11:17:04;;;;;;;11.50;7.30;;;;;;;23.12;83.54;100173.12;105964;1263;101333;-81
2023/08/25 11:19:49;;;;;;;10.10;7.00;;;;;;;23.18;83.14;100168.95;106719;1258;99914;-79
2023/08/25 11:22:34;;;;;;;11.40;6.50;;;;;;;23.26;83.29;100169.35;105980;1259;97819;-81
2023/08/25 11:25:20;;;;;;;12.20;6.90;;;;;;;23.34;83.11;100172.78;106181;1263;97858;-81
2023/08/25 11:28:06;;;;;;;13.20;6.40;;;;;;;23.39;81.93;100174.62;105954;1258;97559;-81
2023/08/25 11:30:51;;;;;;;9.00;6.60;;;;;;;23.42;81.50;100181.23;105758;1258;102617;-82
2023/08/25 11:33:37;;;;;;;10.10;7.20;;;;;;;23.42;80.66;100180.77;105884;1263;99163;-81
2023/08/25 11:36:24;;;;;;;7.80;6.10;;;;;;;23.45;81.09;100180.27;105829;1264;97972;-82
2023/08/25 11:39:16;;;;;;;9.60;6.60;;;;;;;23.49;80.93;100176.98;106180;1263;97976;-82
2023/08/25 11:42:01;;;;;;;10.30;7.20;;;;;;;23.55;80.66;100174.48;106165;1258;98961;-81
2023/08/25 11:44:47;;;;;;;10.20;7.10;;;;;;;23.64;80.78;100174.54;106139;1261;101400;-81
2023/08/25 11:47:33;;;;;;;10.60;6.30;;;;;;;23.72;80.18;100173.23;105804;1264;99071;-80
2023/08/25 11:50:18;;;;;;;12.10;6.50;;;;;;;23.79;79.76;100171.48;105899;1274;97985;-80
2023/08/25 11:53:04;;;;;;;11.00;6.40;;;;;;;23.87;79.39;100175.48;105901;1264;97944;-82
2023/08/25 11:56:05;;;;;;;10.20;6.50;;;;;;;23.97;78.96;100168.35;106087;1265;98584;-82
2023/08/25 11:58:52;;;;;;;14.80;7.20;;;;;;;24.10;78.75;100174.58;106820;1258;101329;-82
2023/08/25 12:01:38;;;;;;;10.60;6.40;;;;;;;24.20;78.37;100175.59;105992;1259;99177;-81
2023/08/25 12:04:25;;;;;;;9.80;6.40;;;;;;;24.31;78.45;100172.59;105859;1257;98417;-81
2023/08/25 12:07:11;;;;;;;9.90;6.70;;;;;;;24.45;77.87;100168.20;106018;1262;97982;-83
2023/08/25 12:10:05;;;;;;;10.90;7.40;;;;;;;24.58;77.75;100176.39;105845;1259;98490;-81
2023/08/25 12:12:53;;;;;;;13.40;9.80;;;;;;;24.71;77.68;100180.71;105912;1263;102670;-82
2023/08/25 12:15:44;;;;;;;8.60;6.10;;;;;;;24.85;77.23;100178.13;105997;1263;99247;-81
2023/08/25 12:18:34;;;;;;;7.30;6.00;;;;;;;24.96;76.71;100185.61;106115;1260;98033;-82
2023/08/25 12:21:20;;;;;;;8.30;6.70;;;;;;;25.06;76.09;100182.70;105949;1260;97938;-81
2023/08/25 12:24:05;;;;;;;10.30;6.80;;;;;;;25.15;75.99;100177.61;105976;1262;98417;-80
2023/08/25 12:26:51;;;;;;;8.80;5.80;;;;;;;25.24;75.60;100178.86;105932;1261;102157;-82
2023/08/25 12:29:37;;;;;;;8.90;6.00;;;;;;;25.36;74.71;100181.24;106002;1259;99940;-82
2023/08/25 12:32:22;;;;;;;8.80;6.00;;;;;;;25.49;74.54;100177.74;106086;1263;98992;-81
2023/08/25 12:35:08;;;;;;;7.60;5.10;;;;;;;25.57;73.42;100176.64;106245;1259;97882;-83
2023/08/25 12:37:53;;;;;;;15.10;7.00;;;;;;;25.63;72.84;100176.84;106461;1263;96820;-82